createdAt,value
2019-04-30T00:00:34.837Z,8.10
2019-04-30T00:06:39.478Z,8.20
2019-04-30T00:12:42.734Z,8.20
2019-04-30T00:18:57.188Z,8.30
2019-04-30T00:24:52.870Z,8.50
2019-04-30T00:30:57.103Z,8.60
2019-04-30T00:37:01.343Z,8.70
2019-04-30T00:43:08.997Z,8.80
2019-04-30T00:49:16.080Z,8.90
2019-04-30T00:55:17.559Z,9.00
2019-04-30T01:01:48.079Z,8.90
2019-04-30T01:07:52.653Z,8.90
2019-04-30T01:13:58.949Z,8.80
2019-04-30T01:20:03.391Z,8.90
2019-04-30T01:26:08.719Z,8.90
2019-04-30T01:32:17.577Z,9.00
2019-04-30T01:38:19.630Z,9.00
2019-04-30T01:44:23.913Z,9.00
2019-04-30T01:50:29.249Z,9.00
2019-04-30T01:56:52.557Z,9.10
2019-04-30T02:02:56.905Z,9.10
2019-04-30T02:09:01.391Z,9.20
2019-04-30T02:15:05.857Z,9.20
2019-04-30T02:21:11.430Z,9.20
2019-04-30T02:27:15.769Z,9.20
2019-04-30T02:33:20.439Z,9.30
2019-04-30T02:39:24.819Z,9.30
2019-04-30T02:45:30.020Z,9.30
2019-04-30T02:51:36.267Z,9.30
2019-04-30T02:57:40.599Z,9.40
2019-04-30T03:03:44.945Z,9.40
2019-04-30T03:09:49.946Z,9.40
2019-04-30T03:15:54.288Z,9.40
2019-04-30T03:22:02.414Z,9.50
2019-04-30T03:28:06.769Z,9.50
2019-04-30T03:34:17.968Z,9.50
2019-04-30T03:40:20.074Z,9.50
2019-04-30T03:46:23.115Z,9.60
2019-04-30T03:52:29.179Z,9.60
2019-04-30T03:58:33.431Z,9.50
2019-04-30T04:04:45.546Z,9.50
2019-04-30T04:11:06.810Z,9.60
2019-04-30T04:17:11.092Z,9.60
2019-04-30T04:23:15.361Z,9.50
2019-04-30T04:29:19.878Z,9.50
2019-04-30T04:35:24.194Z,9.50
2019-04-30T04:41:29.544Z,9.50
2019-04-30T04:47:33.999Z,9.50
2019-04-30T04:53:40.151Z,9.60
2019-04-30T04:59:44.272Z,9.60
2019-04-30T05:05:49.966Z,9.60
2019-04-30T05:11:54.387Z,9.70
2019-04-30T05:17:59.276Z,9.70
2019-04-30T05:24:03.780Z,9.80
2019-04-30T05:30:09.681Z,9.80
2019-04-30T05:36:14.669Z,9.80
2019-04-30T05:42:19.005Z,9.90
2019-04-30T05:48:23.293Z,9.90
2019-04-30T05:54:29.138Z,10.00
2019-04-30T06:00:33.775Z,10.00
2019-04-30T06:06:38.881Z,10.10
2019-04-30T06:13:05.234Z,10.10
2019-04-30T06:19:09.527Z,10.10
2019-04-30T06:25:13.745Z,10.20
2019-04-30T06:31:22.299Z,10.20
2019-04-30T06:37:24.698Z,10.30
2019-04-30T06:43:29.181Z,10.30
2019-04-30T06:49:34.288Z,10.40
2019-04-30T06:55:39.155Z,10.40
2019-04-30T07:01:43.660Z,10.50
2019-04-30T07:08:09.223Z,10.60
2019-04-30T07:14:11.491Z,10.60
2019-04-30T07:20:15.764Z,10.80
2019-04-30T07:26:24.343Z,10.70
2019-04-30T07:32:26.198Z,10.90
2019-04-30T07:38:30.412Z,10.90
2019-04-30T07:44:36.616Z,10.90
2019-04-30T07:50:41.514Z,10.90
2019-04-30T07:56:46.117Z,11.00
2019-04-30T08:03:02.982Z,11.00
2019-04-30T08:09:10.302Z,11.10
2019-04-30T08:15:14.706Z,11.00
2019-04-30T08:21:19.137Z,11.10
2019-04-30T08:27:23.679Z,11.10
2019-04-30T08:33:29.212Z,11.10
2019-04-30T08:39:33.685Z,11.40
2019-04-30T08:45:38.552Z,11.40
2019-04-30T08:51:42.935Z,11.40
2019-04-30T08:57:47.367Z,11.60
2019-04-30T09:03:51.592Z,11.60
2019-04-30T09:09:56.003Z,11.80
2019-04-30T09:16:00.264Z,11.90
2019-04-30T09:22:12.389Z,11.70
2019-04-30T09:28:10.525Z,11.90
2019-04-30T09:34:17.898Z,12.10
2019-04-30T09:40:21.299Z,12.20
2019-04-30T09:46:27.124Z,12.20
2019-04-30T09:52:31.977Z,12.20
2019-04-30T09:58:36.395Z,11.90
2019-04-30T10:04:41.251Z,12.10
2019-04-30T10:10:52.452Z,12.20
2019-04-30T10:17:09.533Z,12.10
2019-04-30T10:23:13.915Z,12.40
2019-04-30T10:29:18.648Z,12.50
2019-04-30T10:35:22.891Z,12.50
2019-04-30T10:41:28.776Z,12.50
2019-04-30T10:47:33.124Z,12.70
2019-04-30T10:53:37.562Z,12.80
2019-04-30T10:59:41.867Z,12.70
2019-04-30T11:05:46.178Z,13.00
2019-04-30T11:11:50.396Z,13.10
2019-04-30T11:17:54.718Z,12.90
2019-04-30T11:23:59.621Z,13.20
2019-04-30T11:30:17.442Z,13.20
2019-04-30T11:36:11.516Z,13.30
2019-04-30T11:42:15.904Z,13.20
2019-04-30T11:48:20.538Z,13.20
2019-04-30T11:54:24.752Z,13.40
2019-04-30T12:00:34.044Z,13.20
2019-04-30T12:06:39.447Z,13.50
2019-04-30T12:12:43.980Z,13.60
2019-04-30T12:18:48.265Z,13.80
2019-04-30T12:25:02.704Z,14.00
2019-04-30T12:30:58.929Z,14.20
2019-04-30T12:37:03.499Z,14.50
2019-04-30T12:43:07.791Z,14.40
2019-04-30T12:49:13.281Z,14.20
2019-04-30T12:55:33.943Z,14.30
2019-04-30T13:01:39.923Z,14.50
2019-04-30T13:07:45.088Z,14.70
2019-04-30T13:13:50.883Z,15.10
2019-04-30T13:19:55.751Z,15.00
2019-04-30T13:26:01.050Z,14.80
2019-04-30T13:32:05.826Z,14.70
2019-04-30T13:38:16.680Z,14.80
2019-04-30T13:44:26.005Z,14.70
2019-04-30T13:50:30.300Z,14.80
2019-04-30T13:56:34.532Z,14.80
2019-04-30T14:02:44.724Z,14.70
2019-04-30T14:08:50.521Z,14.60
2019-04-30T14:14:54.828Z,14.80
2019-04-30T14:21:01.007Z,14.90
2019-04-30T14:27:05.753Z,14.90
2019-04-30T14:33:22.747Z,14.90
2019-04-30T14:39:17.118Z,14.70
2019-04-30T14:45:26.874Z,15.00
2019-04-30T14:51:31.554Z,15.10
2019-04-30T14:58:04.054Z,15.10
2019-04-30T15:04:08.642Z,15.30
2019-04-30T15:10:13.162Z,15.20
2019-04-30T15:16:17.533Z,15.30
2019-04-30T15:22:22.008Z,15.50
2019-04-30T15:28:32.178Z,15.50
2019-04-30T15:34:32.827Z,15.30
2019-04-30T15:40:38.793Z,15.30
2019-04-30T15:46:43.267Z,15.30
2019-04-30T15:52:48.614Z,15.40
2019-04-30T15:59:10.948Z,15.40
2019-04-30T16:05:32.653Z,15.40
2019-04-30T16:12:01.957Z,15.20
2019-04-30T16:18:06.308Z,15.00
2019-04-30T16:24:10.676Z,15.00
2019-04-30T16:30:15.237Z,14.90
2019-04-30T16:36:19.530Z,14.90
2019-04-30T16:42:24.016Z,14.70
2019-04-30T16:48:28.981Z,14.80
2019-04-30T16:54:33.502Z,14.60
2019-04-30T17:00:39.786Z,14.70
2019-04-30T17:06:49.251Z,14.40
2019-04-30T17:13:00.479Z,14.30
2019-04-30T17:19:05.054Z,13.80
2019-04-30T17:25:10.156Z,13.60
2019-04-30T17:31:14.643Z,13.50
2019-04-30T17:37:19.052Z,13.40
2019-04-30T17:43:24.608Z,13.40
2019-04-30T17:49:28.849Z,13.20
2019-04-30T17:55:33.613Z,13.20
2019-04-30T18:01:40.145Z,13.10
2019-04-30T18:07:44.631Z,12.90
2019-04-30T18:13:50.689Z,12.80
2019-04-30T18:20:04.270Z,12.60
2019-04-30T18:26:11.481Z,12.40
2019-04-30T18:32:16.039Z,12.30
2019-04-30T18:38:20.467Z,12.20
2019-04-30T18:44:25.100Z,12.00
2019-04-30T18:50:31.075Z,11.90
2019-04-30T18:56:35.654Z,11.80
2019-04-30T19:02:40.507Z,11.60
2019-04-30T19:08:55.148Z,11.40
2019-04-30T19:15:21.189Z,11.20
2019-04-30T19:21:25.464Z,11.10
2019-04-30T19:27:32.767Z,11.00
2019-04-30T19:33:38.813Z,10.80
2019-04-30T19:39:43.015Z,10.80
2019-04-30T19:45:49.014Z,10.60
2019-04-30T19:52:05.339Z,10.40
2019-04-30T19:57:59.898Z,10.40
2019-04-30T20:04:04.304Z,10.30
2019-04-30T20:10:09.058Z,10.10
2019-04-30T20:16:13.439Z,10.00
2019-04-30T20:22:19.651Z,9.90
2019-04-30T20:28:23.745Z,9.80
2019-04-30T20:34:29.201Z,9.60
2019-04-30T20:40:43.351Z,9.60
2019-04-30T20:46:41.091Z,9.40
2019-04-30T20:52:45.314Z,9.40
2019-04-30T20:58:58.023Z,9.30
2019-04-30T21:04:55.748Z,9.20
2019-04-30T21:10:59.963Z,9.20
2019-04-30T21:17:04.469Z,9.20
2019-04-30T21:23:09.402Z,9.10
2019-04-30T21:29:16.045Z,9.00
2019-04-30T21:35:37.492Z,8.90
2019-04-30T21:41:42.083Z,8.80
2019-04-30T21:47:56.216Z,8.70
2019-04-30T21:53:53.804Z,8.60
2019-04-30T21:59:58.773Z,8.50
2019-04-30T22:06:03.196Z,8.50
2019-04-30T22:12:09.209Z,8.40
2019-04-30T22:18:13.604Z,8.30
2019-04-30T22:24:17.902Z,8.30
2019-04-30T22:30:22.121Z,8.30
2019-04-30T22:36:34.243Z,8.20
2019-04-30T22:42:39.873Z,8.10
2019-04-30T22:48:44.131Z,8.10
2019-04-30T22:54:48.322Z,8.10
2019-04-30T23:00:54.324Z,8.00
2019-04-30T23:06:58.553Z,8.00
2019-04-30T23:13:02.798Z,8.00
2019-04-30T23:19:07.068Z,7.90
2019-04-30T23:25:11.341Z,7.90
2019-04-30T23:31:15.545Z,7.90
2019-04-30T23:37:19.820Z,7.80
2019-04-30T23:43:24.137Z,7.70
2019-04-30T23:49:28.333Z,7.70
2019-04-30T23:55:32.724Z,7.60
